^^

..:: Storico WU ::..




Lo storico viene creato da WUnderground con i dati che la stazione Meteomincio invia al loro server. L' aggiornamento viene fatto ogni 5 minuti circa, tuttavia possono esserci intervalli pił ampi a causa di errori, interruzioni di servizio o problemi nell' invio tramite FTP.


Storico stazione MeteoMincio
Giorno Sommario per Agosto 19, 2022 Unità:  Inglese    Metrico   Entrambi
Giorno Settimana Mese Anno
  Max: Min: Media:
Temperatura: 78.8 °F 64.4 °F 70.3 °F
Dew Point: 69.8 °F 62.6 °F 66.2 °F
Umidità: 95% 68% 87%
Velocità vento: 13mph 0mph 4.5mph
Raffica: 19.9mph - -
Direzione- - WSW
Pressione: 29.8 in 29.7 in -
Precipitazioni: 1.11 in    
 
 
Tabulato Dati per Agosto 19, 2022
Ora Temperatura Dew Point Pressione Direzione Velocità vento Raffica Umidità Intensità pioggia (oraria) Info solare Situazione
00:04 69.8 °F 68 °F 29.8 in West 4.3 mph 6.2 mph 89% 0 in 0.00 W/m2 unknown
00:09 69.8 °F 68 °F 29.8 in WSW 5 mph 6.2 mph 89% 0 in 0.00 W/m2 unknown
00:14 69.8 °F 68 °F 29.8 in SW 1.2 mph 5 mph 90% 0 in 0.00 W/m2 unknown
00:19 69.8 °F 68 °F 29.8 in Calm   1.2 mph 90% 0 in 0.00 W/m2 unknown
00:24 69.8 °F 68 °F 29.8 in NE 3.1 mph 3.7 mph 90% 0 in 0.00 W/m2 unknown
00:29 69.8 °F 66.2 °F 29.8 in NE 1.9 mph 3.7 mph 90% 0 in 0.00 W/m2 unknown
00:34 69.8 °F 66.2 °F 29.8 in NE 3.1 mph 3.7 mph 90% 0 in 0.00 W/m2 unknown
00:39 69.8 °F 68 °F 29.8 in NNE 3.1 mph 3.7 mph 91% 0 in 0.00 W/m2 unknown
00:44 69.8 °F 68 °F 29.8 in NNE 7.5 mph 9.9 mph 91% 0 in 0.00 W/m2 unknown
00:49 69.8 °F 68 °F 29.8 in NNE 7.5 mph 10.6 mph 91% 0 in 0.00 W/m2 unknown
00:54 69.8 °F 68 °F 29.8 in West 5.6 mph 9.9 mph 91% 0 in 0.00 W/m2 unknown
00:59 69.8 °F 66.2 °F 29.8 in NW 6.2 mph 6.8 mph 90% 0 in 0.00 W/m2 unknown
01:04 69.8 °F 68 °F 29.8 in NE 4.3 mph 6.8 mph 91% 0 in 0.00 W/m2 unknown
01:09 69.8 °F 66.2 °F 29.8 in NE 5 mph 6.8 mph 90% 0 in 0.00 W/m2 unknown
01:14 69.8 °F 66.2 °F 29.8 in ENE 3.7 mph 5.6 mph 90% 0 in 0.00 W/m2 unknown
01:19 69.8 °F 66.2 °F 29.8 in North 3.1 mph 6.2 mph 89% 0 in 0.00 W/m2 unknown
01:24 69.8 °F 66.2 °F 29.8 in NW 3.7 mph 5 mph 89% 0 in 0.00 W/m2 unknown
01:29 69.8 °F 66.2 °F 29.8 in NW 4.3 mph 6.8 mph 88% 0 in 0.00 W/m2 unknown
01:34 69.8 °F 66.2 °F 29.8 in NW 3.1 mph 6.8 mph 88% 0 in 0.00 W/m2 unknown
01:39 69.8 °F 66.2 °F 29.8 in WSW 2.5 mph 6.2 mph 88% 0 in 0.00 W/m2 unknown
01:44 69.8 °F 66.2 °F 29.8 in WSW 2.5 mph 3.7 mph 88% 0 in 0.00 W/m2 unknown
01:49 69.8 °F 66.2 °F 29.8 in WSW 2.5 mph 3.7 mph 89% 0 in 0.00 W/m2 unknown
01:54 69.8 °F 66.2 °F 29.8 in SSW 1.9 mph 3.7 mph 89% 0 in 0.00 W/m2 unknown
01:59 69.8 °F 66.2 °F 29.8 in SSE 1.9 mph 3.7 mph 89% 0 in 0.00 W/m2 unknown
02:04 69.8 °F 66.2 °F 29.8 in ENE 4.3 mph 5 mph 89% 0 in 0.00 W/m2 unknown
02:09 69.8 °F 66.2 °F 29.8 in WSW 3.1 mph 5 mph 89% 0 in 0.00 W/m2 unknown
02:14 69.8 °F 66.2 °F 29.8 in SSW 3.1 mph 3.7 mph 89% 0 in 0.00 W/m2 unknown
02:19 69.8 °F 66.2 °F 29.8 in SSW 4.3 mph 6.2 mph 89% 0 in 0.00 W/m2 unknown
02:24 69.8 °F 66.2 °F 29.8 in SSW 6.2 mph 8.1 mph 89% 0 in 0.00 W/m2 unknown
02:29 69.8 °F 66.2 °F 29.8 in SW 6.2 mph 8.1 mph 89% 0 in 0.00 W/m2 unknown
02:34 69.8 °F 66.2 °F 29.8 in SSW 6.2 mph 8.1 mph 90% 0 in 0.00 W/m2 unknown
02:39 69.8 °F 66.2 °F 29.8 in SW 5 mph 8.1 mph 90% 0 in 0.00 W/m2 unknown
02:44 69.8 °F 66.2 °F 29.8 in SW 5 mph 6.8 mph 90% 0 in 0.00 W/m2 unknown
02:49 69.8 °F 66.2 °F 29.8 in SSW 3.1 mph 6.2 mph 90% 0 in 0.00 W/m2 unknown
02:54 69.8 °F 66.2 °F 29.8 in SSW 3.7 mph 5 mph 90% 0 in 0.00 W/m2 unknown
02:59 69.8 °F 66.2 °F 29.8 in ESE 2.5 mph 5 mph 90% 0 in 0.00 W/m2 unknown
03:04 69.8 °F 66.2 °F 29.8 in South 2.5 mph 3.7 mph 90% 0 in 0.00 W/m2 unknown
03:09 69.8 °F 66.2 °F 29.8 in ESE 3.7 mph 5 mph 90% 0 in 0.00 W/m2 unknown
03:14 69.8 °F 66.2 °F 29.8 in ESE 5 mph 6.8 mph 91% 0 in 0.00 W/m2 unknown
03:19 69.8 °F 66.2 °F 29.8 in SE 3.7 mph 6.8 mph 91% 0 in 0.00 W/m2 unknown
03:24 69.8 °F 66.2 °F 29.8 in SE 3.1 mph 6.2 mph 91% 0 in 0.00 W/m2 unknown
03:29 69.8 °F 66.2 °F 29.8 in SSE 1.9 mph 3.7 mph 91% 0 in 0.00 W/m2 unknown
03:34 69.8 °F 66.2 °F 29.8 in ESE 1.2 mph 3.1 mph 91% 0 in 0.00 W/m2 unknown
03:39 69.8 °F 66.2 °F 29.8 in SE 1.2 mph 3.7 mph 90% 0 in 0.00 W/m2 unknown
03:44 69.8 °F 66.2 °F 29.8 in SE 2.5 mph 3.7 mph 90% 0 in 0.00 W/m2 unknown
03:49 69.8 °F 66.2 °F 29.8 in ESE 3.1 mph 5 mph 90% 0 in 0.00 W/m2 unknown
03:54 69.8 °F 66.2 °F 29.8 in ENE 3.1 mph 5 mph 90% 0 in 0.00 W/m2 unknown
03:59 69.8 °F 66.2 °F 29.8 in East 4.3 mph 6.2 mph 90% 0 in 0.00 W/m2 unknown
04:04 69.8 °F 66.2 °F 29.8 in ENE 3.1 mph 6.2 mph 91% 0 in 0.00 W/m2 unknown
04:09 69.8 °F 66.2 °F 29.8 in East 1.9 mph 5 mph 91% 0 in 0.00 W/m2 unknown
04:14 69.8 °F 66.2 °F 29.8 in ESE 1.9 mph 2.5 mph 91% 0 in 0.00 W/m2 unknown
04:19 69.8 °F 66.2 °F 29.8 in Calm   1.9 mph 91% 0 in 0.00 W/m2 unknown
04:24 69.8 °F 66.2 °F 29.7 in ESE 3.7 mph 6.2 mph 91% 0 in 0.00 W/m2 unknown
04:29 68 °F 66.2 °F 29.8 in ESE 3.1 mph 6.2 mph 92% 0 in 0.00 W/m2 unknown
04:34 68 °F 66.2 °F 29.8 in East 1.9 mph 3.7 mph 92% 0 in 0.00 W/m2 unknown
04:39 68 °F 66.2 °F 29.7 in ESE 1.2 mph 2.5 mph 92% 0 in 0.00 W/m2 unknown
04:44 68 °F 66.2 °F 29.8 in ESE 1.2 mph 2.5 mph 92% 0 in 0.00 W/m2 unknown
04:49 68 °F 66.2 °F 29.8 in ESE 1.2 mph 2.5 mph 92% 0 in 0.00 W/m2 unknown
04:54 68 °F 66.2 °F 29.8 in East 3.1 mph 5 mph 92% 0 in 0.00 W/m2 unknown
04:59 68 °F 66.2 °F 29.7 in ENE 5.6 mph 6.8 mph 92% 0 in 0.00 W/m2 unknown
05:04 68 °F 66.2 °F 29.7 in East 5.6 mph 6.8 mph 92% 0 in 0.00 W/m2 unknown
05:09 68 °F 66.2 °F 29.7 in East 3.1 mph 6.8 mph 92% 0 in 0.00 W/m2 unknown
05:14 68 °F 66.2 °F 29.7 in East 1.9 mph 5 mph 92% 0 in 0.00 W/m2 unknown
05:19 68 °F 66.2 °F 29.8 in East 1.2 mph 2.5 mph 92% 0 in 0.00 W/m2 unknown
05:24 68 °F 66.2 °F 29.8 in SE 1.9 mph 3.1 mph 92% 0 in 0.00 W/m2 unknown
05:29 68 °F 66.2 °F 29.8 in WSW 3.1 mph 3.7 mph 92% 0 in 0.00 W/m2 unknown
05:34 68 °F 66.2 °F 29.8 in WSW 4.3 mph 5 mph 92% 0 in 0.00 W/m2 unknown
05:39 68 °F 66.2 °F 29.8 in WSW 4.3 mph 6.8 mph 92% 0 in 0.00 W/m2 unknown
05:44 68 °F 66.2 °F 29.8 in WSW 4.3 mph 6.8 mph 92% 0 in 0.00 W/m2 unknown
05:49 68 °F 66.2 °F 29.8 in West 4.3 mph 8.1 mph 93% 0.01 in 0.00 W/m2 unknown
05:54 68 °F 66.2 °F 29.8 in WSW 6.8 mph 8.7 mph 93% 0.02 in 0.00 W/m2 unknown
05:59 68 °F 66.2 °F 29.8 in West 7.5 mph 9.3 mph 93% 0.02 in 0.00 W/m2 unknown
06:04 68 °F 66.2 °F 29.8 in West 5 mph 8.7 mph 93% 0.04 in 0.00 W/m2 unknown
06:09 68 °F 66.2 °F 29.8 in WNW 3.1 mph 6.8 mph 93% 0.13 in 0.00 W/m2 unknown
06:14 68 °F 66.2 °F 29.8 in WNW 4.3 mph 6.2 mph 93% 0.19 in 0.00 W/m2 unknown
06:19 66.2 °F 64.4 °F 29.8 in WNW 8.7 mph 11.8 mph 93% 0.26 in 0.00 W/m2 unknown
06:24 66.2 °F 64.4 °F 29.8 in WNW 6.2 mph 8.7 mph 93% 0.3 in 0.00 W/m2 unknown
06:29 66.2 °F 64.4 °F 29.8 in West 7.5 mph 10.6 mph 93% 0.39 in 0.00 W/m2 unknown
06:34 66.2 °F 64.4 °F 29.8 in West 6.8 mph 9.9 mph 93% 0.43 in 0.00 W/m2 unknown
06:39 66.2 °F 64.4 °F 29.8 in WNW 5 mph 8.1 mph 93% 0.44 in 0.00 W/m2 unknown
06:44 66.2 °F 64.4 °F 29.8 in WNW 5 mph 6.2 mph 93% 0.44 in 0.00 W/m2 unknown
06:49 66.2 °F 64.4 °F 29.8 in West 3.1 mph 6.2 mph 93% 0.45 in 0.00 W/m2 unknown
06:54 66.2 °F 64.4 °F 29.8 in NNW 3.1 mph 3.7 mph 93% 0.45 in 0.00 W/m2 unknown
06:59 66.2 °F 64.4 °F 29.8 in North 3.1 mph 3.7 mph 94% 0.45 in 0.00 W/m2 unknown
07:04 66.2 °F 64.4 °F 29.8 in North 3.1 mph 3.7 mph 93% 0.45 in 5.00 W/m2 unknown
07:09 66.2 °F 64.4 °F 29.8 in NNW 3.1 mph 3.7 mph 94% 0.44 in 0.00 W/m2 unknown
07:14 66.2 °F 64.4 °F 29.8 in NW 3.1 mph 3.7 mph 94% 0.43 in 0.00 W/m2 unknown
07:19 66.2 °F 64.4 °F 29.8 in West 2.5 mph 3.7 mph 94% 0.35 in 0.00 W/m2 unknown
07:24 66.2 °F 64.4 °F 29.8 in WSW 2.5 mph 3.7 mph 94% 0.3 in 0.00 W/m2 unknown
07:29 66.2 °F 64.4 °F 29.8 in WSW 3.1 mph 3.7 mph 94% 0.24 in 5.00 W/m2 unknown
07:34 66.2 °F 64.4 °F 29.8 in West 1.9 mph 3.7 mph 94% 0.21 in 5.00 W/m2 unknown
07:39 66.2 °F 64.4 °F 29.8 in WSW 3.7 mph 5 mph 94% 0.11 in 0.00 W/m2 unknown
07:44 66.2 °F 64.4 °F 29.8 in WSW 3.7 mph 5 mph 94% 0.09 in 0.00 W/m2 unknown
07:49 66.2 °F 64.4 °F 29.8 in SW 2.5 mph 5 mph 94% 0.09 in 0.00 W/m2 unknown
07:54 66.2 °F 64.4 °F 29.8 in SW 1.9 mph 3.7 mph 94% 0.09 in 0.00 W/m2 unknown
07:59 66.2 °F 64.4 °F 29.8 in SSW 1.9 mph 3.7 mph 94% 0.09 in 0.00 W/m2 unknown
08:04 66.2 °F 64.4 °F 29.8 in SSW 2.5 mph 3.7 mph 94% 0.09 in 0.00 W/m2 unknown
08:09 66.2 °F 64.4 °F 29.8 in WSW 2.5 mph 3.7 mph 94% 0.1 in 0.00 W/m2 unknown
08:14 66.2 °F 64.4 °F 29.8 in WSW 2.5 mph 3.7 mph 94% 0.1 in 0.00 W/m2 unknown
08:19 66.2 °F 64.4 °F 29.8 in West 4.3 mph 5 mph 94% 0.1 in 0.00 W/m2 unknown
08:24 66.2 °F 64.4 °F 29.8 in WSW 4.3 mph 5 mph 95% 0.1 in 0.00 W/m2 unknown
08:29 66.2 °F 64.4 °F 29.8 in West 3.7 mph 5.6 mph 95% 0.09 in 0.00 W/m2 unknown
08:34 66.2 °F 64.4 °F 29.8 in WSW 4.3 mph 6.2 mph 95% 0.1 in 0.00 W/m2 unknown
08:39 64.4 °F 64.4 °F 29.8 in SW 5 mph 6.8 mph 95% 0.12 in 0.00 W/m2 unknown
08:44 64.4 °F 64.4 °F 29.8 in SW 6.8 mph 9.3 mph 95% 0.12 in 0.00 W/m2 unknown
08:49 64.4 °F 64.4 °F 29.8 in SW 6.2 mph 8.1 mph 95% 0.13 in 0.00 W/m2 unknown
08:54 64.4 °F 62.6 °F 29.8 in SW 5 mph 8.1 mph 95% 0.15 in 5.00 W/m2 unknown
08:59 64.4 °F 62.6 °F 29.8 in WSW 3.7 mph 6.8 mph 95% 0.17 in 5.00 W/m2 unknown
09:04 64.4 °F 62.6 °F 29.8 in West 3.7 mph 5 mph 95% 0.17 in 5.00 W/m2 unknown
09:09 64.4 °F 62.6 °F 29.8 in West 3.7 mph 5 mph 95% 0.18 in 5.00 W/m2 unknown
09:14 64.4 °F 62.6 °F 29.8 in West 4.3 mph 5 mph 95% 0.19 in 7.00 W/m2 unknown
09:19 64.4 °F 62.6 °F 29.8 in WNW 5 mph 6.2 mph 95% 0.19 in 7.00 W/m2 unknown
09:24 64.4 °F 62.6 °F 29.8 in WNW 4.3 mph 6.2 mph 95% 0.21 in 7.00 W/m2 unknown
09:29 64.4 °F 62.6 °F 29.8 in WNW 5.6 mph 6.8 mph 95% 0.22 in 9.00 W/m2 unknown
09:34 64.4 °F 62.6 °F 29.8 in WNW 6.2 mph 6.8 mph 95% 0.22 in 11.00 W/m2 unknown
09:39 64.4 °F 62.6 °F 29.8 in WNW 5.6 mph 6.8 mph 95% 0.23 in 12.00 W/m2 unknown
09:44 64.4 °F 62.6 °F 29.8 in WNW 4.3 mph 6.8 mph 95% 0.23 in 14.00 W/m2 unknown
09:49 64.4 °F 62.6 °F 29.8 in WNW 5 mph 6.2 mph 95% 0.24 in 16.00 W/m2 unknown
09:54 64.4 °F 62.6 °F 29.8 in NW 5 mph 6.2 mph 95% 0.23 in 19.00 W/m2 unknown
09:59 64.4 °F 62.6 °F 29.8 in WNW 5 mph 6.8 mph 95% 0.23 in 21.00 W/m2 unknown
10:04 64.4 °F 62.6 °F 29.8 in WNW 5 mph 6.8 mph 95% 0.22 in 23.00 W/m2 unknown
10:09 64.4 °F 62.6 °F 29.8 in WNW 5 mph 6.2 mph 95% 0.22 in 23.00 W/m2 unknown
10:14 64.4 °F 62.6 °F 29.8 in WNW 4.3 mph 6.2 mph 95% 0.22 in 25.00 W/m2 unknown
10:19 64.4 °F 62.6 °F 29.8 in WNW 5.6 mph 6.8 mph 95% 0.21 in 26.00 W/m2 unknown
10:24 64.4 °F 62.6 °F 29.8 in WNW 5 mph 6.8 mph 95% 0.21 in 26.00 W/m2 unknown
10:29 64.4 °F 62.6 °F 29.8 in WNW 6.8 mph 9.9 mph 95% 0.21 in 32.00 W/m2 unknown
10:34 64.4 °F 62.6 °F 29.8 in WNW 6.8 mph 10.6 mph 95% 0.19 in 35.00 W/m2 unknown
10:39 64.4 °F 62.6 °F 29.8 in WNW 6.8 mph 10.6 mph 95% 0.18 in 42.00 W/m2 unknown
10:44 64.4 °F 62.6 °F 29.8 in WNW 6.2 mph 9.9 mph 95% 0.17 in 47.00 W/m2 unknown
10:49 64.4 °F 62.6 °F 29.8 in WNW 5.6 mph 8.1 mph 95% 0.17 in 53.00 W/m2 unknown
10:54 64.4 °F 62.6 °F 29.8 in WNW 6.2 mph 8.1 mph 95% 0.14 in 54.00 W/m2 unknown
10:59 64.4 °F 62.6 °F 29.8 in West 5 mph 8.1 mph 95% 0.13 in 56.00 W/m2 unknown
11:04 64.4 °F 62.6 °F 29.8 in WNW 3.1 mph 5 mph 95% 0.13 in 62.00 W/m2 unknown
11:09 64.4 °F 62.6 °F 29.8 in WNW 3.7 mph 5 mph 95% 0.12 in 69.00 W/m2 unknown
11:14 64.4 °F 62.6 °F 29.8 in WNW 4.3 mph 6.2 mph 95% 0.1 in 79.00 W/m2 unknown
11:19 64.4 °F 62.6 °F 29.8 in WNW 2.5 mph 6.2 mph 95% 0.09 in 93.00 W/m2 unknown
11:24 64.4 °F 64.4 °F 29.8 in NW 3.7 mph 5 mph 95% 0.09 in 105.00 W/m2 unknown
11:29 64.4 °F 64.4 °F 29.8 in NW 5 mph 6.8 mph 95% 0.09 in 113.00 W/m2 unknown
11:34 64.4 °F 64.4 °F 29.8 in NW 6.8 mph 9.3 mph 95% 0.07 in 121.00 W/m2 unknown
11:39 64.4 °F 64.4 °F 29.8 in WNW 6.2 mph 8.7 mph 95% 0.07 in 142.00 W/m2 unknown
11:44 66.2 °F 64.4 °F 29.8 in NW 6.2 mph 8.1 mph 95% 0.06 in 160.00 W/m2 unknown
11:49 66.2 °F 64.4 °F 29.8 in WNW 6.8 mph 9.3 mph 95% 0.06 in 195.00 W/m2 unknown
11:54 66.2 °F 64.4 °F 29.8 in WNW 7.5 mph 9.3 mph 95% 0.06 in 237.00 W/m2 unknown
11:59 66.2 °F 64.4 °F 29.8 in WNW 6.8 mph 9.3 mph 95% 0.05 in 258.00 W/m2 unknown
12:04 66.2 °F 64.4 °F 29.8 in WNW 9.3 mph 11.8 mph 95% 0.05 in 306.00 W/m2 unknown
12:09 66.2 °F 64.4 °F 29.8 in WNW 9.3 mph 11.8 mph 94% 0.05 in 320.00 W/m2 unknown
12:14 66.2 °F 64.4 °F 29.8 in WNW 9.9 mph 12.4 mph 94% 0.05 in 336.00 W/m2 unknown
12:19 68 °F 66.2 °F 29.8 in WNW 9.3 mph 13 mph 94% 0.04 in 366.00 W/m2 unknown
12:24 68 °F 66.2 °F 29.8 in WNW 9.9 mph 14.3 mph 94% 0.03 in 320.00 W/m2 unknown
12:29 68 °F 66.2 °F 29.8 in West 10.6 mph 14.9 mph 94% 0.02 in 318.00 W/m2 unknown
12:34 68 °F 66.2 °F 29.8 in West 10.6 mph 14.9 mph 94% 0.02 in 343.00 W/m2 unknown
12:39 68 °F 66.2 °F 29.8 in WNW 11.2 mph 14.3 mph 93% 0.02 in 387.00 W/m2 unknown
12:44 68 °F 66.2 °F 29.8 in West 11.8 mph 14.3 mph 93% 0.02 in 459.00 W/m2 unknown
12:49 69.8 °F 66.2 °F 29.8 in West 9.9 mph 14.3 mph 93% 0.02 in 621.00 W/m2 unknown
12:54 69.8 °F 68 °F 29.8 in West 9.9 mph 14.9 mph 93% 0.02 in 587.00 W/m2 unknown
12:59 69.8 °F 68 °F 29.8 in West 9.9 mph 14.9 mph 92% 0.01 in 506.00 W/m2 unknown
13:04 69.8 °F 68 °F 29.8 in West 13 mph 19.9 mph 91% 0.01 in 621.00 W/m2 unknown
13:09 69.8 °F 66.2 °F 29.8 in West 11.8 mph 19.9 mph 90% 0 in 338.00 W/m2 unknown
13:14 69.8 °F 66.2 °F 29.8 in West 8.1 mph 16.8 mph 90% 0 in 241.00 W/m2 unknown
13:19 69.8 °F 66.2 °F 29.8 in West 8.1 mph 11.8 mph 90% 0 in 153.00 W/m2 unknown
13:24 69.8 °F 66.2 °F 29.8 in West 8.1 mph 11.8 mph 89% 0 in 283.00 W/m2 unknown
13:29 69.8 °F 66.2 °F 29.8 in West 6.8 mph 9.9 mph 90% 0 in 388.00 W/m2 unknown
13:34 71.6 °F 68 °F 29.8 in West 7.5 mph 9.9 mph 89% 0 in 715.00 W/m2 unknown
13:39 71.6 °F 68 °F 29.8 in West 8.1 mph 10.6 mph 88% 0 in 271.00 W/m2 unknown
13:44 71.6 °F 66.2 °F 29.8 in West 5 mph 9.9 mph 87% 0 in 288.00 W/m2 unknown
13:49 71.6 °F 68 °F 29.8 in WSW 6.2 mph 9.3 mph 87% 0 in 396.00 W/m2 unknown
13:54 71.6 °F 68 °F 29.8 in West 6.8 mph 9.3 mph 86% 0 in 522.00 W/m2 unknown
13:59 71.6 °F 68 °F 29.8 in WNW 8.1 mph 11.2 mph 86% 0 in 432.00 W/m2 unknown
14:04 71.6 °F 68 °F 29.8 in West 9.3 mph 11.8 mph 85% 0 in 355.00 W/m2 unknown
14:09 71.6 °F 68 °F 29.8 in West 8.7 mph 11.8 mph 85% 0 in 253.00 W/m2 unknown
14:14 71.6 °F 68 °F 29.8 in West 10.6 mph 14.3 mph 85% 0 in 274.00 W/m2 unknown
14:19 71.6 °F 68 °F 29.8 in West 9.9 mph 14.3 mph 85% 0 in 323.00 W/m2 unknown
14:24 71.6 °F 68 °F 29.8 in West 9.9 mph 13 mph 85% 0 in 401.00 W/m2 unknown
14:29 73.4 °F 68 °F 29.8 in WSW 8.7 mph 11.8 mph 84% 0 in 417.00 W/m2 unknown
14:34 73.4 °F 68 °F 29.8 in WSW 8.7 mph 11.8 mph 83% 0 in 422.00 W/m2 unknown
14:39 73.4 °F 68 °F 29.8 in West 8.1 mph 11.8 mph 82% 0 in 422.00 W/m2 unknown
14:44 73.4 °F 68 °F 29.8 in West 8.1 mph 11.8 mph 82% 0 in 371.00 W/m2 unknown
14:49 73.4 °F 68 °F 29.8 in West 8.1 mph 11.8 mph 81% 0 in 350.00 W/m2 unknown
14:54 73.4 °F 68 °F 29.8 in West 8.7 mph 11.8 mph 81% 0 in 380.00 W/m2 unknown
14:59 75.2 °F 68 °F 29.8 in West 5 mph 11.8 mph 82% 0 in 367.00 W/m2 unknown
15:04 73.4 °F 68 °F 29.8 in West 4.3 mph 8.1 mph 82% 0 in 220.00 W/m2 unknown
15:09 73.4 °F 68 °F 29.8 in WNW 6.2 mph 9.3 mph 81% 0 in 297.00 W/m2 unknown
15:14 73.4 °F 68 °F 29.8 in West 6.8 mph 9.3 mph 81% 0 in 297.00 W/m2 unknown
15:19 73.4 °F 68 °F 29.8 in West 8.1 mph 11.8 mph 81% 0 in 239.00 W/m2 unknown
15:24 75.2 °F 68 °F 29.8 in West 7.5 mph 11.8 mph 81% 0.01 in 258.00 W/m2 unknown
15:29 77 °F 69.8 °F 29.8 in West 8.1 mph 11.8 mph 81% 0.01 in 861.00 W/m2 unknown
15:34 77 °F 69.8 °F 29.8 in West 9.9 mph 14.3 mph 79% 0.01 in 1025.00 W/m2 unknown
15:39 77 °F 69.8 °F 29.8 in West 9.9 mph 14.3 mph 76% 0.01 in 1025.00 W/m2 unknown
15:44 77 °F 69.8 °F 29.8 in West 11.2 mph 14.3 mph 75% 0.01 in 573.00 W/m2 unknown
15:49 77 °F 68 °F 29.8 in West 8.1 mph 14.3 mph 76% 0.01 in 522.00 W/m2 unknown
15:53 77 °F 69.8 °F 29.8 in West 8.7 mph 11.8 mph 77% 0.01 in 436.00 W/m2 unknown
15:59 77 °F 69.8 °F 29.8 in West 6.8 mph 11.8 mph 77% 0.01 in 390.00 W/m2 unknown
16:04 77 °F 69.8 °F 29.8 in WNW 5 mph 9.9 mph 77% 0.01 in 425.00 W/m2 unknown
16:09 77 °F 69.8 °F 29.8 in WNW 5.6 mph 8.1 mph 77% 0.01 in 492.00 W/m2 unknown
16:14 77 °F 68 °F 29.8 in West 7.5 mph 11.8 mph 75% 0.01 in 492.00 W/m2 unknown
16:19 77 °F 68 °F 29.8 in WNW 6.8 mph 11.8 mph 73% 0.01 in 494.00 W/m2 unknown
16:24 77 °F 68 °F 29.8 in WNW 6.8 mph 11.8 mph 74% 0.01 in 751.00 W/m2 unknown
16:29 77 °F 69.8 °F 29.8 in West 6.2 mph 8.7 mph 75% 0 in 751.00 W/m2 unknown
16:34 78.8 °F 69.8 °F 29.8 in West 6.8 mph 10.6 mph 74% 0 in 729.00 W/m2 unknown
16:39 78.8 °F 68 °F 29.8 in West 6.8 mph 9.3 mph 73% 0 in 684.00 W/m2 unknown
16:44 78.8 °F 69.8 °F 29.8 in West 5.6 mph 8.7 mph 73% 0 in 606.00 W/m2 unknown
16:49 78.8 °F 68 °F 29.8 in West 6.2 mph 9.3 mph 72% 0 in 606.00 W/m2 unknown
16:54 78.8 °F 68 °F 29.8 in WNW 6.2 mph 8.7 mph 72% 0 in 624.00 W/m2 unknown
16:59 78.8 °F 68 °F 29.8 in West 8.1 mph 11.8 mph 72% 0 in 606.00 W/m2 unknown
17:04 78.8 °F 68 °F 29.8 in West 9.3 mph 11.8 mph 72% 0 in 584.00 W/m2 unknown
17:09 78.8 °F 68 °F 29.8 in West 6.2 mph 11.8 mph 72% 0 in 584.00 W/m2 unknown
17:14 78.8 °F 68 °F 29.8 in WNW 6.2 mph 10.6 mph 71% 0 in 527.00 W/m2 unknown
17:19 78.8 °F 68 °F 29.8 in WNW 6.8 mph 9.9 mph 68% 0 in 519.00 W/m2 unknown
17:24 78.8 °F 68 °F 29.8 in WNW 7.5 mph 10.6 mph 68% 0 in 515.00 W/m2 unknown
17:29 78.8 °F 68 °F 29.8 in WNW 6.2 mph 9.9 mph 70% 0 in 485.00 W/m2 unknown
17:34 78.8 °F 68 °F 29.8 in West 6.8 mph 8.1 mph 71% 0 in 438.00 W/m2 unknown
17:39 78.8 °F 68 °F 29.8 in WNW 6.2 mph 10.6 mph 71% 0 in 417.00 W/m2 unknown
17:44 78.8 °F 68 °F 29.8 in WNW 6.2 mph 9.9 mph 70% 0 in 371.00 W/m2 unknown
17:49 78.8 °F 68 °F 29.8 in WNW 8.1 mph 10.6 mph 70% 0 in 334.00 W/m2 unknown
17:54 78.8 °F 68 °F 29.8 in NW 6.8 mph 10.6 mph 69% 0 in 105.00 W/m2 unknown
17:59 78.8 °F 68 °F 29.8 in NNW 6.8 mph 9.9 mph 70% 0 in 397.00 W/m2 unknown
18:04 78.8 °F 68 °F 29.8 in WNW 6.2 mph 10.6 mph 70% 0 in 401.00 W/m2 unknown
18:09 78.8 °F 68 °F 29.8 in WNW 6.8 mph 9.9 mph 70% 0 in 388.00 W/m2 unknown
18:14 78.8 °F 68 °F 29.8 in NW 5.6 mph 8.7 mph 69% 0 in 364.00 W/m2 unknown
18:19 78.8 °F 68 °F 29.8 in NW 5.6 mph 6.8 mph 70% 0 in 248.00 W/m2 unknown
18:24 78.8 °F 68 °F 29.8 in NW 3.7 mph 6.8 mph 71% 0 in 301.00 W/m2 unknown
18:29 78.8 °F 68 °F 29.8 in NW 4.3 mph 6.8 mph 71% 0 in 279.00 W/m2 unknown
18:34 78.8 °F 68 °F 29.8 in NNW 5 mph 6.8 mph 70% 0 in 279.00 W/m2 unknown
18:39 78.8 °F 68 °F 29.8 in NW 3.7 mph 6.2 mph 70% 0 in 223.00 W/m2 unknown
18:44 78.8 °F 68 °F 29.8 in NW 3.7 mph 6.2 mph 71% 0 in 229.00 W/m2 unknown
18:49 78.8 °F 68 °F 29.8 in NW 3.7 mph 5 mph 72% 0 in 216.00 W/m2 unknown
18:54 78.8 °F 68 °F 29.8 in NW 2.5 mph 3.7 mph 72% 0 in 176.00 W/m2 unknown
18:59 77 °F 68 °F 29.8 in NW 3.1 mph 3.7 mph 72% 0 in 178.00 W/m2 unknown
19:04 77 °F 68 °F 29.8 in WNW 3.7 mph 5 mph 71% 0 in 153.00 W/m2 unknown
19:09 77 °F 68 °F 29.8 in WNW 3.7 mph 5 mph 71% 0 in 158.00 W/m2 unknown
19:14 77 °F 68 °F 29.8 in WNW 3.1 mph 5 mph 72% 0 in 130.00 W/m2 unknown
19:19 77 °F 68 °F 29.8 in WNW 3.1 mph 3.7 mph 72% 0 in 118.00 W/m2 unknown
19:24 77 °F 68 °F 29.8 in NW 2.5 mph 3.7 mph 72% 0 in 95.00 W/m2 unknown
19:29 77 °F 68 °F 29.8 in WNW 1.2 mph 3.1 mph 73% 0 in 76.00 W/m2 unknown
19:34 77 °F 68 °F 29.8 in WNW 1.2 mph 2.5 mph 75% 0 in 19.00 W/m2 unknown
19:39 77 °F 68 °F 29.8 in WNW 1.2 mph 2.5 mph 77% 0 in 16.00 W/m2 unknown
19:44 75.2 °F 68 °F 29.8 in WNW 0.6 mph 1.2 mph 79% 0 in 14.00 W/m2 unknown
19:49 75.2 °F 68 °F 29.8 in Calm   1.2 mph 80% 0 in 12.00 W/m2 unknown
19:54 73.4 °F 68 °F 29.8 in Calm     82% 0 in 11.00 W/m2 unknown
19:59 73.4 °F 68 °F 29.8 in Calm     83% 0 in 9.00 W/m2 unknown
20:04 73.4 °F 68 °F 29.8 in Calm     85% 0 in 7.00 W/m2 unknown
20:09 73.4 °F 68 °F 29.8 in Calm     85% 0 in 5.00 W/m2 unknown
20:14 73.4 °F 68 °F 29.8 in Calm     86% 0 in 0.00 W/m2 unknown
20:19 71.6 °F 68 °F 29.8 in Calm     86% 0 in 0.00 W/m2 unknown
20:24 71.6 °F 68 °F 29.8 in Calm     86% 0 in 0.00 W/m2 unknown
20:29 71.6 °F 68 °F 29.8 in NE 1.2 mph 2.5 mph 86% 0 in 0.00 W/m2 unknown
20:34 71.6 °F 68 °F 29.8 in NE 1.2 mph 2.5 mph 87% 0 in 0.00 W/m2 unknown
20:39 71.6 °F 68 °F 29.8 in Calm   1.9 mph 87% 0 in 0.00 W/m2 unknown
20:44 71.6 °F 68 °F 29.8 in NNE 2.5 mph 3.7 mph 87% 0 in 0.00 W/m2 unknown
20:49 71.6 °F 68 °F 29.8 in NNE 1.9 mph 3.7 mph 87% 0 in 0.00 W/m2 unknown
20:54 71.6 °F 68 °F 29.8 in NW 1.2 mph 3.1 mph 86% 0 in 0.00 W/m2 unknown
20:59 71.6 °F 68 °F 29.8 in NW 1.2 mph 2.5 mph 86% 0 in 0.00 W/m2 unknown
21:04 71.6 °F 68 °F 29.8 in NW 1.2 mph 1.9 mph 86% 0 in 0.00 W/m2 unknown
21:09 71.6 °F 66.2 °F 29.8 in Calm   1.2 mph 87% 0 in 0.00 W/m2 unknown
21:14 71.6 °F 66.2 °F 29.8 in Calm   1.2 mph 88% 0 in 0.00 W/m2 unknown
21:19 69.8 °F 66.2 °F 29.8 in Calm   1.2 mph 88% 0 in 0.00 W/m2 unknown
21:24 69.8 °F 66.2 °F 29.8 in Calm     89% 0 in 0.00 W/m2 unknown
21:29 69.8 °F 66.2 °F 29.8 in Calm     89% 0 in 0.00 W/m2 unknown
21:34 69.8 °F 66.2 °F 29.8 in Calm   1.2 mph 89% 0 in 0.00 W/m2 unknown
21:39 69.8 °F 66.2 °F 29.8 in NW 0.6 mph 1.2 mph 89% 0 in 0.00 W/m2 unknown
21:44 69.8 °F 66.2 °F 29.8 in Calm   1.2 mph 90% 0 in 0.00 W/m2 unknown
21:49 69.8 °F 66.2 °F 29.8 in Calm   1.2 mph 90% 0 in 0.00 W/m2 unknown
21:54 69.8 °F 66.2 °F 29.8 in Calm     90% 0 in 0.00 W/m2 unknown
21:59 69.8 °F 66.2 °F 29.8 in Calm   1.2 mph 90% 0 in 0.00 W/m2 unknown
22:04 69.8 °F 66.2 °F 29.8 in NW 0.6 mph 2.5 mph 90% 0 in 0.00 W/m2 unknown
22:09 69.8 °F 66.2 °F 29.8 in NW 1.2 mph 1.9 mph 90% 0 in 0.00 W/m2 unknown
22:14 69.8 °F 66.2 °F 29.8 in Calm   1.2 mph 90% 0 in 0.00 W/m2 unknown
22:19 69.8 °F 66.2 °F 29.8 in NW 0.6 mph 1.2 mph 90% 0 in 0.00 W/m2 unknown
22:24 69.8 °F 66.2 °F 29.8 in Calm   1.2 mph 90% 0 in 0.00 W/m2 unknown
22:29 69.8 °F 66.2 °F 29.8 in Calm   1.2 mph 90% 0 in 0.00 W/m2 unknown
22:34 69.8 °F 66.2 °F 29.8 in WNW 1.9 mph 2.5 mph 90% 0 in 0.00 W/m2 unknown
22:39 68 °F 66.2 °F 29.8 in WNW 2.5 mph 3.7 mph 91% 0 in 0.00 W/m2 unknown
22:44 69.8 °F 66.2 °F 29.8 in WNW 3.1 mph 3.7 mph 91% 0 in 0.00 W/m2 unknown
22:49 69.8 °F 66.2 °F 29.8 in WNW 2.5 mph 3.7 mph 90% 0 in 0.00 W/m2 unknown
22:54 69.8 °F 66.2 °F 29.8 in WNW 2.5 mph 3.7 mph 89% 0 in 0.00 W/m2 unknown
22:59 69.8 °F 66.2 °F 29.8 in WNW 1.2 mph 3.1 mph 89% 0 in 0.00 W/m2 unknown
23:04 69.8 °F 66.2 °F 29.8 in WNW 1.2 mph 2.5 mph 89% 0 in 0.00 W/m2 unknown
23:09 69.8 °F 66.2 °F 29.8 in WNW 1.9 mph 3.1 mph 89% 0 in 0.00 W/m2 unknown
23:14 69.8 °F 66.2 °F 29.8 in WNW 1.9 mph 3.7 mph 89% 0 in 0.00 W/m2 unknown
23:19 69.8 °F 66.2 °F 29.8 in NW 1.2 mph 3.7 mph 89% 0 in 0.00 W/m2 unknown
23:24 69.8 °F 66.2 °F 29.8 in WNW 1.2 mph 2.5 mph 89% 0 in 0.00 W/m2 unknown
23:29 69.8 °F 66.2 °F 29.8 in Calm   1.9 mph 89% 0 in 0.00 W/m2 unknown
23:34 69.8 °F 66.2 °F 29.8 in Calm     89% 0 in 0.00 W/m2 unknown
23:39 69.8 °F 66.2 °F 29.8 in Calm     90% 0 in 0.00 W/m2 unknown
23:44 69.8 °F 66.2 °F 29.8 in North 2.5 mph 3.7 mph 90% 0 in 0.00 W/m2 unknown
23:49 69.8 °F 66.2 °F 29.8 in NNW 2.5 mph 3.7 mph 90% 0 in 0.00 W/m2 unknown
23:54 69.8 °F 66.2 °F 29.8 in NW 2.5 mph 3.7 mph 90% 0 in 0.00 W/m2 unknown
23:59 69.8 °F 66.2 °F 29.8 in WNW 2.5 mph 3.7 mph 90% 0 in 0.00 W/m2 unknown
Stazione Meteorologica MeteoMincio Rivalta s/M (MN)
Con i complimenti di Weather Underground - 2 mb



METEO PILLOLE
Il luogo più nebbioso degli USA
Cape Disappointment - Washington
Per 2552 ore (106 giorni) all'anno in media è avvolto da nebbia fitta.
Share

Non seguire questo link o sarai bannato dal sito!